Time;durP1;ratioP1;P1;durP2;ratioP2;P2;SDS_P1;SDS_P2;PMS_P1;PMS_P2;Temp;Humidity;BMP_temperature;BMP_pressure;BME280_temperature;BME280_humidity;BME280_pressure;Samples;Min_cycle;Max_cycle;Signal;HPM_P1;HPM_P2
2022/10/29 00:00:54;;;;;;;13.10;3.77;;;;;;;13.03;88.47;99376.78;6168451;23;20200;-57
2022/10/29 00:03:22;;;;;;;12.90;3.93;;;;;;;13.01;87.14;99391.03;6169897;23;20204;-58
2022/10/29 00:06:00;;;;;;;12.30;3.77;;;;;;;13.03;89.31;99394.31;6166285;23;20210;-58
2022/10/29 00:08:29;;;;;;;13.17;3.77;;;;;;;12.94;89.88;99388.16;6169079;23;20215;-58
2022/10/29 00:10:56;;;;;;;15.83;3.80;;;;;;;12.94;90.97;99388.16;6168633;23;20657;-59
2022/10/29 00:13:23;;;;;;;10.20;3.60;;;;;;;12.88;90.10;99397.44;6170860;23;20208;-58
2022/10/29 00:15:50;;;;;;;16.03;3.70;;;;;;;12.82;90.67;99392.78;6167345;23;20208;-56
2022/10/29 00:18:16;;;;;;;15.60;3.83;;;;;;;12.83;88.86;99391.81;6170720;23;20829;-56
2022/10/29 00:20:43;;;;;;;10.77;4.47;;;;;;;12.80;88.68;99392.91;6165716;23;20200;-57
2022/10/29 00:23:09;;;;;;;14.50;3.90;;;;;;;12.81;89.19;99378.84;6170354;23;20751;-58
2022/10/29 00:25:37;;;;;;;14.57;4.30;;;;;;;12.78;89.76;99376.53;6166287;23;20239;-59
2022/10/29 00:28:04;;;;;;;12.00;3.60;;;;;;;12.76;89.47;99381.09;6173574;23;20271;-59
2022/10/29 00:30:30;;;;;;;17.10;4.13;;;;;;;12.91;89.28;99380.59;6170846;23;20581;-58
2022/10/29 00:32:59;;;;;;;21.07;4.17;;;;;;;12.86;89.05;99373.19;6174791;23;20217;-59
2022/10/29 00:35:26;;;;;;;16.40;4.50;;;;;;;12.86;88.91;99373.19;6173930;23;20224;-59
2022/10/29 00:37:52;;;;;;;18.37;3.93;;;;;;;12.84;88.62;99365.47;6173954;23;20204;-58
2022/10/29 00:40:19;;;;;;;11.90;3.93;;;;;;;12.85;87.52;99374.16;6175978;23;20258;-59
2022/10/29 00:42:47;;;;;;;14.03;4.43;;;;;;;12.94;87.57;99378.50;6172052;23;20217;-60
2022/10/29 00:45:21;;;;;;;11.37;3.90;;;;;;;13.00;88.18;99387.56;6175881;23;20263;-59
2022/10/29 00:47:51;;;;;;;11.73;4.27;;;;;;;12.90;89.24;99382.41;6172370;23;20208;-58
2022/10/29 00:50:21;;;;;;;19.13;4.50;;;;;;;12.95;88.63;99379.31;6175900;23;20581;-59
2022/10/29 00:52:50;;;;;;;13.13;3.87;;;;;;;12.87;89.33;99380.06;6172148;23;20271;-59
2022/10/29 00:55:19;;;;;;;14.70;4.20;;;;;;;12.84;89.73;99389.03;6175977;23;20547;-59
2022/10/29 00:57:51;;;;;;;17.80;4.50;;;;;;;12.93;89.26;99389.97;6172594;23;30653;-59
2022/10/29 01:00:19;;;;;;;15.50;4.35;;;;;;;12.93;91.29;99394.38;6174715;23;20420;-58
2022/10/29 01:02:46;;;;;;;17.47;4.30;;;;;;;12.81;91.80;99384.09;6171250;23;21650;-57
2022/10/29 01:05:17;;;;;;;16.93;4.10;;;;;;;12.79;90.24;99382.59;6174724;23;20207;-60
2022/10/29 01:07:44;;;;;;;15.47;3.83;;;;;;;12.78;88.91;99386.19;6171319;23;20655;-59
2022/10/29 01:10:11;;;;;;;17.40;3.97;;;;;;;12.72;90.66;99381.53;6175552;23;20208;-58
2022/10/29 01:13:07;;;;;;;20.43;4.63;;;;;;;12.73;90.32;99385.81;6169934;23;20593;-59
2022/10/29 01:15:44;;;;;;;12.90;4.40;;;;;;;12.70;90.02;99382.50;6172155;23;20266;-58
2022/10/29 01:18:19;;;;;;;12.73;3.60;;;;;;;12.81;89.92;99386.72;6174429;23;20203;-57
2022/10/29 01:21:28;;;;;;;8.60;3.47;;;;;;;12.91;87.78;99377.97;6171257;23;20212;-58
2022/10/29 01:24:40;;;;;;;13.73;3.93;;;;;;;12.99;88.52;99370.19;6172228;23;20211;-58
2022/10/29 01:27:31;;;;;;;14.67;3.97;;;;;;;13.14;89.79;99373.16;6172804;23;20203;-58
2022/10/29 01:30:08;;;;;;;12.63;4.00;;;;;;;13.28;90.77;99366.53;6172067;23;20664;-56
2022/10/29 01:32:45;;;;;;;10.93;4.40;;;;;;;13.34;90.81;99368.56;6171790;23;20265;-58
2022/10/29 01:35:20;;;;;;;12.80;3.90;;;;;;;13.37;91.04;99365.66;6175137;23;20267;-57
2022/10/29 01:37:59;;;;;;;12.43;3.93;;;;;;;13.39;89.98;99357.63;6171940;23;20204;-59
2022/10/29 01:40:33;;;;;;;11.70;4.10;;;;;;;13.48;92.39;99353.31;6173917;23;20220;-58
2022/10/29 01:43:06;;;;;;;17.00;4.50;;;;;;;13.35;92.70;99351.88;6173072;23;20776;-58
2022/10/29 01:45:38;;;;;;;13.60;3.30;;;;;;;13.32;90.69;99349.53;6171546;23;20209;-58
2022/10/29 01:48:11;;;;;;;12.70;3.87;;;;;;;13.31;88.30;99349.69;6175058;23;20213;-58
2022/10/29 01:50:42;;;;;;;13.83;3.80;;;;;;;13.35;88.11;99361.50;6144952;23;20201;-58
2022/10/29 01:53:09;;;;;;;11.47;4.10;;;;;;;13.24;89.54;99357.34;6174635;23;20590;-58
2022/10/29 01:55:36;;;;;;;15.43;3.50;;;;;;;13.19;89.09;99356.97;6171911;23;20249;-58
2022/10/29 01:58:03;;;;;;;13.33;3.90;;;;;;;13.13;89.62;99350.53;6175645;23;20246;-58
2022/10/29 02:00:37;;;;;;;15.77;4.03;;;;;;;13.09;89.99;99352.59;6172041;23;20207;-58
2022/10/29 02:03:18;;;;;;;10.40;4.17;;;;;;;13.07;89.82;99348.50;6175472;23;20204;-57
2022/10/29 02:05:52;;;;;;;13.10;4.50;;;;;;;12.95;89.89;99337.41;6171841;23;20248;-59
2022/10/29 02:08:27;;;;;;;9.07;3.87;;;;;;;12.87;89.48;99337.31;6175401;23;20215;-58
2022/10/29 02:10:58;;;;;;;15.60;4.27;;;;;;;12.83;90.75;99332.38;6172680;23;20203;-56
2022/10/29 02:13:31;;;;;;;13.17;4.07;;;;;;;12.82;90.87;99324.66;6175271;23;20205;-56
2022/10/29 02:15:59;;;;;;;15.50;3.83;;;;;;;12.80;89.88;99327.41;6172720;23;20254;-58
2022/10/29 02:18:27;;;;;;;14.83;3.57;;;;;;;12.77;90.07;99319.84;6175492;23;20230;-56
2022/10/29 02:20:54;;;;;;;13.73;4.07;;;;;;;12.72;89.69;99324.72;6172053;23;20706;-57
2022/10/29 02:23:20;;;;;;;13.43;3.67;;;;;;;12.69;87.96;99325.84;6175177;23;20761;-58
2022/10/29 02:25:47;;;;;;;12.67;3.37;;;;;;;12.67;87.42;99332.22;6171663;23;20244;-56
2022/10/29 02:28:13;;;;;;;10.90;3.90;;;;;;;12.59;87.55;99330.31;6175368;23;20219;-56
2022/10/29 02:30:40;;;;;;;14.47;3.87;;;;;;;12.64;88.98;99324.66;6171798;23;20671;-56
2022/10/29 02:33:06;;;;;;;11.30;3.83;;;;;;;12.55;89.94;99328.97;6148204;23;20547;-57
2022/10/29 02:35:34;;;;;;;16.27;3.80;;;;;;;12.49;90.89;99325.16;6171960;23;20653;-58
2022/10/29 02:38:01;;;;;;;13.97;4.63;;;;;;;12.60;90.66;99320.69;6175472;23;20242;-58
2022/10/29 02:40:27;;;;;;;14.90;4.10;;;;;;;12.53;92.73;99323.88;6171662;23;20200;-59
2022/10/29 02:42:54;;;;;;;15.27;4.17;;;;;;;12.51;91.28;99310.09;6174970;23;20208;-57
2022/10/29 02:45:21;;;;;;;11.67;5.10;;;;;;;12.44;90.30;99308.22;6175565;23;20199;-58
2022/10/29 02:47:47;;;;;;;12.40;4.07;;;;;;;12.38;90.69;99310.44;6171279;23;20269;-59
2022/10/29 02:50:14;;;;;;;13.33;3.90;;;;;;;12.38;91.73;99307.00;6174626;23;20258;-59
2022/10/29 02:52:42;;;;;;;11.63;3.43;;;;;;;12.32;91.78;99300.53;6170841;23;20207;-59
2022/10/29 02:55:09;;;;;;;11.77;3.97;;;;;;;12.37;89.69;99295.69;6174097;23;20205;-58
2022/10/29 02:57:36;;;;;;;12.90;4.27;;;;;;;12.51;93.62;99291.78;6171186;23;20208;-56
2022/10/29 03:00:03;;;;;;;11.80;4.53;;;;;;;12.48;93.21;99296.47;6174643;23;20585;-57
2022/10/29 03:02:29;;;;;;;14.87;4.43;;;;;;;12.41;92.85;99285.78;6171071;23;20289;-57
2022/10/29 03:04:56;;;;;;;18.67;4.50;;;;;;;12.44;94.21;99282.84;6175204;23;20214;-58
2022/10/29 03:07:22;;;;;;;10.43;4.10;;;;;;;12.50;91.81;99279.66;6176634;23;20209;-57
2022/10/29 03:09:50;;;;;;;17.67;3.97;;;;;;;12.48;89.34;99284.22;6172447;23;20261;-56
2022/10/29 03:12:17;;;;;;;13.53;3.90;;;;;;;12.49;88.42;99275.38;6175967;23;20223;-59
2022/10/29 03:14:43;;;;;;;12.13;3.60;;;;;;;12.56;86.75;99283.47;6172438;23;20542;-59
2022/10/29 03:17:10;;;;;;;7.43;3.43;;;;;;;12.60;88.75;99286.63;6176564;23;20277;-59
2022/10/29 03:19:36;;;;;;;17.10;3.87;;;;;;;12.58;87.10;99283.34;6172976;23;20211;-57
2022/10/29 03:22:03;;;;;;;23.20;4.53;;;;;;;12.56;88.66;99283.47;6176487;23;20204;-59
2022/10/29 03:24:29;;;;;;;12.47;4.07;;;;;;;12.51;87.17;99276.06;6172903;23;20646;-56
2022/10/29 03:26:57;;;;;;;8.27;2.83;;;;;;;12.48;87.40;99270.28;6176577;23;20263;-57
2022/10/29 03:29:24;;;;;;;13.00;3.77;;;;;;;12.47;87.25;99279.13;6176238;23;20212;-58
2022/10/29 03:31:50;;;;;;;14.47;4.00;;;;;;;12.60;87.65;99268.31;6162689;23;20261;-57
2022/10/29 03:34:17;;;;;;;16.90;4.00;;;;;;;12.53;88.44;99263.66;6176025;23;20207;-57
2022/10/29 03:36:43;;;;;;;14.27;4.40;;;;;;;12.45;88.17;99273.19;6173505;23;20204;-57
2022/10/29 03:39:10;;;;;;;16.57;3.90;;;;;;;12.69;85.69;99270.03;6176882;23;20208;-58
2022/10/29 03:41:36;;;;;;;14.07;3.43;;;;;;;12.61;88.78;99268.13;6173317;23;20262;-57
2022/10/29 03:44:05;;;;;;;12.97;3.60;;;;;;;12.58;87.87;99265.81;6176642;23;20204;-59
2022/10/29 03:46:31;;;;;;;13.77;3.60;;;;;;;12.65;87.75;99266.06;6172929;23;20206;-57
2022/10/29 03:48:58;;;;;;;15.67;4.00;;;;;;;12.67;86.53;99261.50;6176383;23;20670;-57
2022/10/29 03:51:24;;;;;;;14.30;4.50;;;;;;;12.91;81.40;99270.53;6176254;23;20202;-58
2022/10/29 03:53:51;;;;;;;10.70;3.90;;;;;;;12.82;83.81;99270.47;6171795;23;20199;-58
2022/10/29 03:56:18;;;;;;;13.40;3.70;;;;;;;12.84;81.31;99268.50;6176048;23;20204;-58
2022/10/29 03:58:44;;;;;;;10.33;3.43;;;;;;;12.74;81.44;99272.19;6172457;23;20254;-58
2022/10/29 04:01:12;;;;;;;14.98;4.40;;;;;;;12.75;80.85;99269.41;6175244;23;20415;-57
2022/10/29 04:03:41;;;;;;;11.70;3.37;;;;;;;12.73;80.92;99266.13;6171503;23;20203;-57
2022/10/29 04:06:12;;;;;;;11.63;3.53;;;;;;;12.77;81.47;99270.09;6176189;23;20204;-56
2022/10/29 04:08:38;;;;;;;16.23;3.73;;;;;;;12.82;84.16;99274.91;6172369;23;20200;-58
2022/10/29 04:11:06;;;;;;;10.87;3.60;;;;;;;12.73;82.56;99279.22;6175758;23;20270;-58
2022/10/29 04:13:33;;;;;;;14.53;3.90;;;;;;;12.67;82.99;99282.44;6171814;23;20673;-57
2022/10/29 04:16:00;;;;;;;15.63;3.00;;;;;;;12.61;83.24;99272.56;6176155;23;20585;-57
2022/10/29 04:18:28;;;;;;;12.87;3.70;;;;;;;12.62;83.26;99275.03;6174760;23;20822;-59
2022/10/29 04:20:59;;;;;;;9.50;3.80;;;;;;;12.66;83.73;99270.31;6174252;23;20697;-56
2022/10/29 04:23:26;;;;;;;8.43;3.70;;;;;;;12.58;84.16;99273.66;6175841;23;20230;-59
2022/10/29 04:25:56;;;;;;;14.87;3.73;;;;;;;12.54;85.12;99274.94;6172149;23;20258;-58
2022/10/29 04:28:23;;;;;;;12.90;4.67;;;;;;;12.48;85.04;99272.91;6176131;23;20723;-59
2022/10/29 04:30:50;;;;;;;15.63;3.77;;;;;;;12.61;82.27;99291.72;6172028;23;20266;-59
2022/10/29 04:33:16;;;;;;;10.40;3.37;;;;;;;12.50;83.00;99290.13;6175701;23;20208;-59
2022/10/29 04:35:44;;;;;;;14.27;3.90;;;;;;;12.48;84.26;99296.47;6172289;23;20203;-59
2022/10/29 04:38:12;;;;;;;15.27;3.97;;;;;;;12.39;83.75;99287.72;6175688;23;20207;-58
2022/10/29 04:40:38;;;;;;;10.97;3.47;;;;;;;12.38;85.17;99288.69;6172629;23;20206;-58
2022/10/29 04:43:05;;;;;;;17.13;4.40;;;;;;;12.41;84.36;99293.63;6175694;23;20205;-60
2022/10/29 04:45:31;;;;;;;13.27;4.50;;;;;;;12.42;83.54;99291.81;6145503;23;20204;-58
2022/10/29 04:48:01;;;;;;;19.93;4.00;;;;;;;12.31;85.26;99311.19;6175951;23;20215;-59
2022/10/29 04:50:28;;;;;;;14.77;4.43;;;;;;;12.29;84.86;99315.72;6145996;23;20606;-58
2022/10/29 04:52:59;;;;;;;15.63;4.30;;;;;;;12.22;87.19;99308.44;6175842;23;20255;-58
2022/10/29 04:55:26;;;;;;;15.67;4.60;;;;;;;12.16;87.58;99310.84;6175930;23;20223;-58
2022/10/29 04:57:53;;;;;;;12.27;4.47;;;;;;;12.06;88.90;99310.84;6173076;23;20748;-58
2022/10/29 05:00:21;;;;;;;17.13;5.70;;;;;;;12.01;90.76;99298.22;6175584;23;20199;-59
2022/10/29 05:02:48;;;;;;;19.33;9.47;;;;;;;12.04;92.29;99297.09;6171960;23;20222;-58
2022/10/29 05:05:15;;;;;;;18.20;7.17;;;;;;;12.00;93.93;99293.97;6175505;23;20208;-59
2022/10/29 05:07:41;;;;;;;20.83;5.17;;;;;;;12.01;94.86;99289.53;6171719;23;20201;-59
2022/10/29 05:10:10;;;;;;;14.13;5.10;;;;;;;11.92;94.45;99275.50;6175224;23;20287;-60
2022/10/29 05:12:37;;;;;;;16.80;4.87;;;;;;;11.85;95.05;99277.84;6171541;23;20207;-59
2022/10/29 05:15:04;;;;;;;15.07;5.70;;;;;;;11.80;95.69;99272.22;6174906;23;20254;-59
2022/10/29 05:17:31;;;;;;;16.50;4.53;;;;;;;11.76;96.01;99261.22;6171856;23;20200;-58
2022/10/29 05:19:58;;;;;;;24.50;5.73;;;;;;;11.77;96.39;99259.44;6174174;23;20535;-57
2022/10/29 05:22:24;;;;;;;9.13;4.60;;;;;;;11.73;96.06;99261.50;6174825;23;20654;-57
2022/10/29 05:24:51;;;;;;;11.67;4.97;;;;;;;11.90;97.02;99265.16;6171436;23;20203;-58
2022/10/29 05:27:18;;;;;;;16.73;4.33;;;;;;;11.81;96.36;99263.41;6175464;23;20253;-57
2022/10/29 05:29:45;;;;;;;13.43;5.03;;;;;;;11.79;95.30;99268.78;6171928;23;20203;-57
2022/10/29 05:32:12;;;;;;;17.30;6.60;;;;;;;11.76;95.78;99268.25;6175432;23;20210;-58
2022/10/29 05:34:38;;;;;;;10.40;5.10;;;;;;;11.74;96.46;99273.63;6171691;23;20207;-56
2022/10/29 05:37:05;;;;;;;13.83;4.53;;;;;;;11.74;96.10;99267.56;6175470;23;20654;-59
2022/10/29 05:39:31;;;;;;;12.03;4.77;;;;;;;11.71;96.09;99267.84;6171753;23;20199;-58
2022/10/29 05:41:58;;;;;;;18.90;4.60;;;;;;;11.70;94.63;99277.50;6175522;23;20218;-58
2022/10/29 05:44:25;;;;;;;15.90;6.50;;;;;;;11.63;96.07;99279.03;6175192;23;20195;-58
2022/10/29 05:46:52;;;;;;;14.00;5.30;;;;;;;11.56;95.85;99286.63;6171977;23;20582;-58
2022/10/29 05:49:18;;;;;;;13.30;4.97;;;;;;;11.55;95.76;99281.50;6174989;23;20585;-57
2022/10/29 05:51:45;;;;;;;12.57;4.63;;;;;;;11.47;96.58;99283.03;6171350;23;20549;-58
2022/10/29 05:54:12;;;;;;;12.63;5.77;;;;;;;11.44;97.48;99288.56;6175080;23;20727;-57
2022/10/29 05:56:38;;;;;;;14.43;4.80;;;;;;;11.40;97.02;99292.41;6171452;23;20203;-59
2022/10/29 05:59:05;;;;;;;22.07;5.33;;;;;;;11.36;97.27;99286.66;6175585;23;20257;-57
2022/10/29 06:01:32;;;;;;;12.50;4.90;;;;;;;11.43;96.96;99281.66;6171759;23;20207;-58
2022/10/29 06:04:00;;;;;;;13.70;4.97;;;;;;;11.34;97.79;99283.34;6175135;23;20264;-57
2022/10/29 06:06:26;;;;;;;19.33;5.43;;;;;;;11.33;97.59;99281.69;6174795;23;20716;-59
2022/10/29 06:08:53;;;;;;;14.70;5.17;;;;;;;11.33;98.15;99289.53;6173108;23;20257;-58
2022/10/29 06:11:19;;;;;;;12.00;5.70;;;;;;;11.32;98.62;99292.28;6175475;23;20218;-57
2022/10/29 06:13:46;;;;;;;12.97;5.10;;;;;;;11.30;99.01;99297.66;6171530;23;20199;-58
2022/10/29 06:16:13;;;;;;;14.27;5.53;;;;;;;11.38;98.78;99294.34;6175406;23;20206;-58
2022/10/29 06:18:40;;;;;;;15.23;5.20;;;;;;;11.39;100.00;99298.59;6171828;23;20257;-56
2022/10/29 06:21:07;;;;;;;14.77;5.30;;;;;;;11.41;99.41;99291.44;6175483;23;20211;-57
2022/10/29 06:23:34;;;;;;;13.87;5.17;;;;;;;11.42;99.96;99300.13;6171140;23;20219;-57
2022/10/29 06:26:02;;;;;;;14.47;4.83;;;;;;;11.48;99.14;99295.16;6175680;23;21009;-56
2022/10/29 06:28:29;;;;;;;16.80;5.43;;;;;;;11.53;99.14;99294.75;6171605;23;20207;-56
2022/10/29 06:30:55;;;;;;;10.57;5.10;;;;;;;11.52;99.47;99298.31;6174948;23;20210;-57
2022/10/29 06:33:22;;;;;;;17.07;5.07;;;;;;;11.59;99.56;99295.97;6175044;23;20213;-58
2022/10/29 06:35:50;;;;;;;15.13;5.30;;;;;;;11.59;99.95;99298.56;6171964;23;20206;-57
2022/10/29 06:38:16;;;;;;;17.73;5.40;;;;;;;11.59;99.91;99301.19;6175747;23;20642;-57
2022/10/29 06:40:43;;;;;;;14.13;6.20;;;;;;;11.63;99.99;99292.94;6173623;23;20226;-58
2022/10/29 06:43:12;;;;;;;12.57;5.53;;;;;;;11.63;99.89;99298.16;6176648;23;20209;-58
2022/10/29 06:45:38;;;;;;;15.60;5.33;;;;;;;11.65;99.68;99298.84;6173425;23;20214;-58
2022/10/29 06:48:06;;;;;;;16.60;5.27;;;;;;;11.69;100.00;99303.78;6177373;23;20211;-57
2022/10/29 06:50:33;;;;;;;13.63;5.30;;;;;;;11.72;100.00;99306.09;6173318;23;20207;-58
2022/10/29 06:53:02;;;;;;;12.27;5.30;;;;;;;11.77;100.00;99314.34;6176418;23;20617;-58
2022/10/29 06:55:29;;;;;;;13.43;4.87;;;;;;;11.85;100.00;99314.47;6172996;23;20213;-58
2022/10/29 06:57:57;;;;;;;12.27;5.30;;;;;;;11.88;100.00;99306.34;6150650;23;20215;-58
2022/10/29 07:00:24;;;;;;;15.30;4.97;;;;;;;12.02;99.50;99312.94;6176712;23;20715;-57
2022/10/29 07:02:51;;;;;;;13.77;5.20;;;;;;;12.03;100.00;99306.75;6146800;23;20282;-58
2022/10/29 07:05:17;;;;;;;15.07;5.33;;;;;;;12.06;99.96;99311.69;6176575;23;20215;-58
2022/10/29 07:07:44;;;;;;;15.10;4.90;;;;;;;12.09;100.00;99313.19;6173059;23;20204;-59
2022/10/29 07:10:12;;;;;;;15.10;5.50;;;;;;;12.13;99.97;99316.34;6176746;23;20288;-58
2022/10/29 07:12:40;;;;;;;19.23;6.00;;;;;;;12.18;100.00;99312.31;6172881;23;20211;-58
2022/10/29 07:15:07;;;;;;;14.57;6.30;;;;;;;12.22;100.00;99311.06;6176353;23;20725;-59
2022/10/29 07:17:34;;;;;;;18.30;5.50;;;;;;;12.30;99.98;99318.19;6173136;23;20229;-58
2022/10/29 07:20:00;;;;;;;13.57;5.00;;;;;;;12.34;100.00;99310.88;6176763;23;20253;-58
2022/10/29 07:22:27;;;;;;;22.93;5.60;;;;;;;12.37;100.00;99321.88;6175365;23;20204;-58
2022/10/29 07:24:53;;;;;;;13.53;4.60;;;;;;;12.43;99.66;99314.41;6148527;23;20262;-58
2022/10/29 07:27:21;;;;;;;8.17;4.27;;;;;;;12.46;99.51;99314.97;6176547;23;20651;-56
2022/10/29 07:29:48;;;;;;;12.87;4.93;;;;;;;12.51;98.41;99309.28;6172766;23;20221;-58
2022/10/29 07:32:14;;;;;;;11.60;4.93;;;;;;;12.56;98.98;99314.91;6176429;23;20216;-57
2022/10/29 07:34:41;;;;;;;14.30;5.23;;;;;;;12.60;98.78;99311.00;6172823;23;20593;-57
2022/10/29 07:37:07;;;;;;;10.47;5.13;;;;;;;12.67;99.37;99319.13;6176616;23;20204;-59
2022/10/29 07:39:34;;;;;;;16.13;7.40;;;;;;;12.72;99.57;99318.66;6173043;23;20203;-58
2022/10/29 07:42:01;;;;;;;13.60;5.17;;;;;;;12.76;99.25;99322.63;6176734;23;20276;-58
2022/10/29 07:44:28;;;;;;;10.20;4.83;;;;;;;12.81;98.99;99323.03;6172426;23;20214;-57
2022/10/29 07:46:55;;;;;;;12.47;4.80;;;;;;;12.85;98.95;99324.38;6176215;23;20204;-58
2022/10/29 07:49:22;;;;;;;11.50;4.73;;;;;;;12.89;99.32;99330.13;6176221;23;20583;-58
2022/10/29 07:51:48;;;;;;;19.70;5.20;;;;;;;12.91;99.35;99331.66;6172223;23;20579;-57
2022/10/29 07:54:15;;;;;;;15.10;5.33;;;;;;;12.93;98.98;99329.69;6176376;23;20254;-57
2022/10/29 07:56:41;;;;;;;13.17;5.27;;;;;;;12.99;97.77;99333.50;6172410;23;20203;-58
2022/10/29 07:59:08;;;;;;;12.53;4.67;;;;;;;13.07;97.61;99330.97;6176352;23;20207;-57
2022/10/29 08:01:36;;;;;;;12.63;4.43;;;;;;;13.16;97.02;99325.81;6146632;23;20259;-57
2022/10/29 08:04:03;;;;;;;17.77;4.60;;;;;;;13.23;96.07;99317.19;6176329;23;20201;-57
2022/10/29 08:06:29;;;;;;;11.93;4.57;;;;;;;13.35;95.28;99320.41;6172759;23;20208;-57
2022/10/29 08:08:57;;;;;;;17.33;5.33;;;;;;;13.47;95.52;99320.19;6175997;23;20679;-59
2022/10/29 08:11:23;;;;;;;13.20;4.83;;;;;;;13.56;95.70;99324.53;6176281;23;20218;-58
2022/10/29 08:13:50;;;;;;;13.70;4.10;;;;;;;13.68;94.83;99319.84;6172037;23;20203;-58
2022/10/29 08:16:16;;;;;;;18.63;4.87;;;;;;;13.77;94.04;99316.28;6176531;23;20211;-58
2022/10/29 08:18:45;;;;;;;11.27;3.80;;;;;;;13.87;93.91;99313.56;6172510;23;20197;-58
2022/10/29 08:21:11;;;;;;;12.13;3.93;;;;;;;13.98;92.52;99315.91;6175874;23;20220;-58
2022/10/29 08:23:38;;;;;;;13.10;4.50;;;;;;;14.08;91.00;99315.81;6172387;23;20210;-58
2022/10/29 08:26:04;;;;;;;11.87;3.73;;;;;;;14.16;90.20;99315.03;6176281;23;20204;-58
2022/10/29 08:28:31;;;;;;;11.40;4.10;;;;;;;14.26;90.14;99317.53;6172439;23;20259;-58
2022/10/29 08:30:57;;;;;;;12.77;5.63;;;;;;;14.34;89.63;99320.19;6175901;23;20614;-58
2022/10/29 08:33:24;;;;;;;11.60;4.27;;;;;;;14.42;88.63;99320.22;6175994;23;20261;-56
2022/10/29 08:35:53;;;;;;;11.40;3.87;;;;;;;14.54;87.46;99328.66;6172543;23;20643;-58
2022/10/29 08:38:22;;;;;;;19.27;4.40;;;;;;;14.65;86.83;99329.34;6175886;23;20231;-57
2022/10/29 08:41:04;;;;;;;12.90;3.53;;;;;;;14.78;87.11;99323.63;6172406;23;20234;-58
2022/10/29 08:43:57;;;;;;;10.23;4.40;;;;;;;14.91;85.07;99319.53;6172127;23;20749;-59
2022/10/29 08:46:33;;;;;;;14.20;5.07;;;;;;;15.08;85.97;99326.66;6176131;23;20208;-57
2022/10/29 08:49:05;;;;;;;14.80;4.10;;;;;;;15.20;84.72;99328.78;6172997;23;20577;-58
2022/10/29 08:51:38;;;;;;;13.17;4.10;;;;;;;15.31;84.27;99332.09;6172302;23;20208;-57
2022/10/29 08:54:05;;;;;;;16.13;4.50;;;;;;;15.42;83.45;99337.00;6175688;23;20259;-58
2022/10/29 08:56:35;;;;;;;13.97;3.93;;;;;;;15.49;82.40;99335.38;6172227;23;20275;-59
2022/10/29 08:59:06;;;;;;;8.00;3.70;;;;;;;15.60;81.72;99330.75;6176041;23;20207;-58
2022/10/29 09:01:33;;;;;;;12.73;3.77;;;;;;;15.58;81.26;99332.75;6171506;23;20209;-58
2022/10/29 09:04:00;;;;;;;14.23;4.63;;;;;;;15.63;84.24;99328.59;6175040;23;20576;-58
2022/10/29 09:06:38;;;;;;;11.13;4.10;;;;;;;15.73;84.92;99330.25;6175657;23;20252;-58
2022/10/29 09:09:27;;;;;;;13.13;4.57;;;;;;;15.83;82.55;99335.34;6172906;23;20280;-58
2022/10/29 09:12:13;;;;;;;11.23;4.50;;;;;;;15.94;82.16;99333.19;6172512;23;20260;-59
2022/10/29 09:14:55;;;;;;;14.13;3.77;;;;;;;16.06;83.14;99333.66;6171902;23;20248;-59
2022/10/29 09:17:30;;;;;;;11.83;4.47;;;;;;;16.18;82.85;99328.84;6175978;23;20200;-58
2022/10/29 09:20:18;;;;;;;15.30;4.90;;;;;;;16.27;81.46;99328.81;6172984;23;20210;-58
2022/10/29 09:23:00;;;;;;;15.70;4.67;;;;;;;16.36;80.43;99320.72;6171594;23;20513;-59
2022/10/29 09:25:31;;;;;;;17.07;5.00;;;;;;;16.47;79.13;99327.41;6175541;23;20200;-59
2022/10/29 09:28:15;;;;;;;15.27;4.60;;;;;;;16.56;78.29;99317.66;6172266;23;20210;-59
2022/10/29 09:30:50;;;;;;;14.93;5.03;;;;;;;16.66;77.94;99320.06;6171806;23;20412;-58
2022/10/29 09:33:19;;;;;;;16.63;5.27;;;;;;;16.74;78.57;99321.84;6175585;23;20205;-58
2022/10/29 09:35:49;;;;;;;18.90;5.07;;;;;;;16.81;77.73;99328.88;6171951;23;20205;-58
2022/10/29 09:38:19;;;;;;;12.37;5.00;;;;;;;16.93;78.20;99325.84;6175537;23;20203;-58
2022/10/29 09:40:46;;;;;;;17.23;5.27;;;;;;;17.03;76.42;99336.19;6171456;23;20260;-57
2022/10/29 09:43:23;;;;;;;17.10;4.80;;;;;;;17.15;76.13;99340.06;6175311;23;20225;-58
2022/10/29 09:45:57;;;;;;;16.73;4.83;;;;;;;17.19;76.16;99340.53;6170912;23;20833;-62
2022/10/29 09:48:29;;;;;;;17.00;4.73;;;;;;;17.31;76.56;99343.56;6175715;23;20657;-62
2022/10/29 09:51:05;;;;;;;19.27;5.23;;;;;;;17.19;75.51;99345.81;6172678;23;20277;-62
2022/10/29 09:53:34;;;;;;;24.33;6.50;;;;;;;17.34;74.18;99345.84;6171451;23;20683;-61
2022/10/29 09:56:00;;;;;;;14.70;5.57;;;;;;;17.37;73.93;99342.88;6174748;23;20212;-62
2022/10/29 09:58:28;;;;;;;13.93;5.20;;;;;;;17.46;74.50;99347.06;6173145;23;20209;-62
2022/10/29 10:00:56;;;;;;;16.27;6.47;;;;;;;17.57;73.78;99337.91;6172318;23;20282;-62
2022/10/29 10:03:28;;;;;;;11.43;5.87;;;;;;;17.59;74.44;99340.38;6174851;23;20641;-62
2022/10/29 10:05:57;;;;;;;21.77;7.00;;;;;;;17.62;72.70;99340.03;6172465;23;20250;-63
2022/10/29 10:08:24;;;;;;;16.50;5.73;;;;;;;17.71;73.94;99344.22;6174913;23;20210;-62
2022/10/29 10:10:54;;;;;;;14.20;5.63;;;;;;;17.86;75.50;99346.88;6171619;23;20273;-62
2022/10/29 10:13:23;;;;;;;12.17;4.77;;;;;;;18.00;74.57;99346.09;6174648;23;20207;-62
2022/10/29 10:15:53;;;;;;;14.57;5.40;;;;;;;18.09;74.03;99341.53;6172873;23;20212;-62
2022/10/29 10:18:22;;;;;;;14.97;5.50;;;;;;;18.16;72.24;99339.00;6177141;23;20203;-62
2022/10/29 10:21:00;;;;;;;16.27;5.53;;;;;;;18.26;74.06;99336.91;6173579;23;20207;-62
2022/10/29 10:23:29;;;;;;;15.10;5.90;;;;;;;18.45;67.94;99329.41;6176888;23;20273;-63
2022/10/29 10:25:58;;;;;;;19.07;5.07;;;;;;;18.50;67.59;99323.56;6174110;23;20658;-63
2022/10/29 10:28:28;;;;;;;14.13;5.03;;;;;;;18.55;66.69;99315.88;6177621;23;20204;-63
2022/10/29 10:31:11;;;;;;;11.33;5.50;;;;;;;18.71;68.26;99307.75;6174442;23;20215;-63
2022/10/29 10:33:48;;;;;;;15.97;4.67;;;;;;;18.91;68.35;99309.78;6173880;23;20214;-63
2022/10/29 10:36:15;;;;;;;12.80;5.27;;;;;;;19.03;67.90;99308.28;6177452;23;20203;-63
2022/10/29 10:38:45;;;;;;;15.43;5.47;;;;;;;19.09;67.83;99308.53;6172199;23;20212;-63
2022/10/29 10:41:16;;;;;;;16.20;4.80;;;;;;;19.12;67.31;99311.63;6150717;23;20207;-63
2022/10/29 10:43:45;;;;;;;12.13;5.10;;;;;;;19.27;66.82;99311.53;6172112;23;20211;-63
2022/10/29 10:46:16;;;;;;;13.93;5.33;;;;;;;19.21;66.15;99312.28;6176707;23;20210;-63
2022/10/29 10:48:42;;;;;;;16.33;5.30;;;;;;;19.14;67.53;99299.03;6172539;23;20206;-63
2022/10/29 10:51:15;;;;;;;15.13;5.00;;;;;;;19.16;67.17;99299.66;6171409;23;20321;-62
2022/10/29 10:53:41;;;;;;;15.23;5.20;;;;;;;19.33;64.52;99292.25;6165947;23;20675;-62
2022/10/29 10:56:18;;;;;;;16.10;4.40;;;;;;;19.22;65.47;99287.47;6171525;23;20690;-62
2022/10/29 10:58:50;;;;;;;20.03;5.30;;;;;;;19.20;64.90;99286.03;6167335;23;20223;-63
2022/10/29 11:01:22;;;;;;;14.93;5.47;;;;;;;19.23;66.60;99272.41;6171122;23;20286;-63
2022/10/29 11:03:55;;;;;;;15.33;4.83;;;;;;;19.24;68.28;99274.06;6167478;23;20204;-63
2022/10/29 11:06:24;;;;;;;14.83;5.57;;;;;;;19.27;68.02;99269.19;6170651;23;20205;-63
2022/10/29 11:08:56;;;;;;;9.40;3.97;;;;;;;19.27;66.96;99266.53;6167911;23;20260;-63
2022/10/29 11:11:28;;;;;;;11.40;4.67;;;;;;;19.27;67.19;99255.94;6171031;23;20741;-63
2022/10/29 11:14:00;;;;;;;16.40;5.30;;;;;;;19.32;67.80;99256.19;6168010;23;20219;-61
2022/10/29 11:16:32;;;;;;;16.43;4.47;;;;;;;19.40;67.71;99242.00;6155595;23;20210;-62
2022/10/29 11:19:05;;;;;;;15.57;4.87;;;;;;;19.45;68.37;99236.13;6168530;23;20215;-62
2022/10/29 11:21:38;;;;;;;16.13;5.60;;;;;;;19.39;69.59;99228.97;6167294;23;20200;-60
2022/10/29 11:24:13;;;;;;;10.77;5.37;;;;;;;19.45;70.74;99222.88;6168755;23;20205;-60
2022/10/29 11:26:48;;;;;;;17.73;5.03;;;;;;;19.60;71.62;99226.25;6153960;23;20200;-59
2022/10/29 11:29:21;;;;;;;13.97;5.00;;;;;;;19.74;75.15;99227.13;6170614;23;20662;-60
2022/10/29 11:31:59;;;;;;;11.80;5.10;;;;;;;19.89;70.51;99224.38;6168177;23;20263;-59
2022/10/29 11:34:35;;;;;;;13.57;4.87;;;;;;;20.15;70.31;99222.03;6170893;23;20304;-60